Terminal Aerodrome Forecast
Issued by NWS Central Illinois

Home | Current Version | Previous Version | Text Only | Print | Product List | Glossary On
Versions: 1 2 3 4 5 6 7 8 9 10 11 12 13 14 15 16 17 18 19 20 21 22 23 24 25
000
FTUS43 KILX 300409 AAC
TAFPIA
TAF AMD
KPIA 300409Z 3004/3024 27004KT P6SM -SHRA VCTS SCT035CB BKN060
     FM300500 33010KT P6SM VCTS SCT035CB
      TEMPO 3005/3006 33015G25KT TSRA SCT020 BKN035CB
     FM301100 27006KT P6SM VCTS BKN035CB
     FM301800 30010KT P6SM VCTS BKN035CB=

USA.gov is the U.S. government's official web portal to all federal, state and local government web resources and services.